Levasy, Missouri
Current Conditions -  °F | °C
As of 8:15 AM on Saturday 20 Dec 2014 (Local Time) from KGPH Reporting Station
Haze Haze  
Wind Chill: 29°   Ceiling: 1200
Heat Index: 34°   Visibility: 3mi
Dew Point: 34°   Wind: 6mph
Humidity: 100%   Direction: 140°SE
Pressure: 30.2"   Gusts: NA
Location:  39.14°N, 94.13°W
Report Text: KGPH 201415Z AUTO 14005KT 3SM BR OVC012 01/01 A3020 RMK AO2
Loading
Personal Weather Stations






























Interactive Weather Map New forecast layout! Learn more

10-Day Weather Forecast

Advertisements
Track Severe Weather on mobile